createdAt,value
2023-07-16T00:01:32.996Z,17.05
2023-07-16T00:04:03.538Z,17.04
2023-07-16T00:06:33.973Z,17.04
2023-07-16T00:09:05.360Z,17.02
2023-07-16T00:11:36.041Z,16.97
2023-07-16T00:14:05.883Z,16.93
2023-07-16T00:16:35.959Z,16.88
2023-07-16T00:19:06.865Z,16.86
2023-07-16T00:21:38.454Z,16.83
2023-07-16T00:24:10.900Z,16.81
2023-07-16T00:26:43.725Z,16.78
2023-07-16T00:29:16.839Z,16.77
2023-07-16T00:31:47.419Z,16.74
2023-07-16T00:34:19.017Z,16.70
2023-07-16T00:36:49.924Z,16.66
2023-07-16T00:39:20.950Z,16.61
2023-07-16T00:41:52.306Z,16.57
2023-07-16T00:44:22.228Z,16.51
2023-07-16T00:46:53.774Z,16.48
2023-07-16T00:49:24.236Z,16.43
2023-07-16T00:51:58.774Z,16.39
2023-07-16T00:54:33.479Z,16.37
2023-07-16T00:57:04.122Z,16.35
2023-07-16T00:59:35.287Z,16.33
2023-07-16T01:02:07.472Z,16.32
2023-07-16T01:04:39.225Z,16.33
2023-07-16T01:07:15.204Z,16.33
2023-07-16T01:09:48.860Z,16.31
2023-07-16T01:12:23.738Z,16.29
2023-07-16T01:14:56.731Z,16.27
2023-07-16T01:17:30.882Z,16.24
2023-07-16T01:20:04.944Z,16.22
2023-07-16T01:23:16.495Z,16.18
2023-07-16T01:26:09.526Z,16.15
2023-07-16T01:29:11.702Z,16.13
2023-07-16T01:31:48.419Z,16.11
2023-07-16T01:34:20.744Z,16.07
2023-07-16T01:36:52.540Z,16.04
2023-07-16T01:39:23.202Z,16.00
2023-07-16T01:41:54.087Z,15.97
2023-07-16T01:44:27.354Z,15.95
2023-07-16T01:47:21.861Z,15.92
2023-07-16T01:49:52.789Z,15.90
2023-07-16T01:52:23.318Z,15.89
2023-07-16T01:54:53.681Z,15.87
2023-07-16T01:57:27.252Z,15.83
2023-07-16T02:00:03.449Z,15.81
2023-07-16T02:02:42.218Z,15.78
2023-07-16T02:05:24.352Z,15.75
2023-07-16T02:08:06.625Z,15.72
2023-07-16T02:10:42.001Z,15.71
2023-07-16T02:13:19.662Z,15.68
2023-07-16T02:15:54.652Z,15.67
2023-07-16T02:18:28.084Z,15.66
2023-07-16T02:20:58.898Z,15.62
2023-07-16T02:23:29.272Z,15.59
2023-07-16T02:25:59.961Z,15.55
2023-07-16T02:28:31.791Z,15.52
2023-07-16T02:31:02.394Z,15.50
2023-07-16T02:33:32.715Z,15.46
2023-07-16T02:36:03.624Z,15.45
2023-07-16T02:38:36.484Z,15.43
2023-07-16T02:41:08.704Z,15.40
2023-07-16T02:43:42.203Z,15.37
2023-07-16T02:46:14.126Z,15.37
2023-07-16T02:48:45.329Z,15.34
2023-07-16T02:51:17.674Z,15.32
2023-07-16T02:53:49.140Z,15.30
2023-07-16T02:56:19.600Z,15.29
2023-07-16T02:58:49.740Z,15.28
2023-07-16T03:01:22.057Z,15.28
2023-07-16T03:03:55.446Z,15.27
2023-07-16T03:06:26.993Z,15.27
2023-07-16T03:08:56.789Z,15.27
2023-07-16T03:11:28.241Z,15.27
2023-07-16T03:14:01.420Z,15.28
2023-07-16T03:16:32.373Z,15.28
2023-07-16T03:19:04.364Z,15.31
2023-07-16T03:21:35.986Z,15.32
2023-07-16T03:24:06.400Z,15.35
2023-07-16T03:26:37.152Z,15.38
2023-07-16T03:29:08.128Z,15.42
2023-07-16T03:31:38.801Z,15.46
2023-07-16T03:34:10.136Z,15.50
2023-07-16T03:36:41.794Z,15.54
2023-07-16T03:39:13.905Z,15.57
2023-07-16T03:41:44.434Z,15.57
2023-07-16T03:44:15.340Z,15.58
2023-07-16T03:46:45.970Z,15.61
2023-07-16T03:49:16.702Z,15.65
2023-07-16T03:51:47.088Z,15.74
2023-07-16T03:54:18.551Z,15.83
2023-07-16T03:56:49.344Z,15.91
2023-07-16T03:59:18.858Z,15.99
2023-07-16T04:01:48.437Z,16.09
2023-07-16T04:04:18.067Z,16.17
2023-07-16T04:06:48.014Z,16.26
2023-07-16T04:09:18.179Z,16.37
2023-07-16T04:11:47.815Z,16.44
2023-07-16T04:14:17.523Z,16.54
2023-07-16T04:16:48.644Z,16.64
2023-07-16T04:19:18.918Z,16.75
2023-07-16T04:21:49.009Z,16.84
2023-07-16T04:24:18.635Z,16.89
2023-07-16T04:26:49.297Z,16.91
2023-07-16T04:29:19.288Z,16.97
2023-07-16T04:31:48.855Z,17.10
2023-07-16T04:34:18.804Z,17.26
2023-07-16T04:36:49.054Z,17.39
2023-07-16T04:39:18.396Z,17.50
2023-07-16T04:41:48.327Z,17.63
2023-07-16T04:44:18.316Z,17.76
2023-07-16T04:46:49.400Z,17.90
2023-07-16T04:49:19.993Z,18.02
2023-07-16T04:51:49.794Z,18.14
2023-07-16T04:54:18.781Z,18.27
2023-07-16T04:56:48.503Z,18.41
2023-07-16T04:59:18.534Z,18.54
2023-07-16T05:01:47.995Z,18.67
2023-07-16T05:04:18.619Z,18.76
2023-07-16T05:06:47.991Z,18.90
2023-07-16T05:09:17.383Z,19.06
2023-07-16T05:11:46.779Z,19.26
2023-07-16T05:14:16.058Z,19.54
2023-07-16T05:16:45.446Z,20.01
2023-07-16T05:19:14.612Z,20.51
2023-07-16T05:21:43.733Z,21.00
2023-07-16T05:24:13.058Z,21.54
2023-07-16T05:26:42.173Z,22.04
2023-07-16T05:29:11.657Z,22.64
2023-07-16T05:31:41.510Z,23.05
2023-07-16T05:34:10.660Z,23.51
2023-07-16T05:36:40.086Z,23.83
2023-07-16T05:39:10.744Z,24.05
2023-07-16T05:41:43.706Z,24.18
2023-07-16T05:44:13.329Z,24.16
2023-07-16T05:46:42.976Z,24.07
2023-07-16T05:49:12.316Z,23.96
2023-07-16T05:51:41.802Z,23.97
2023-07-16T05:54:10.790Z,24.07
2023-07-16T05:56:39.889Z,24.10
2023-07-16T05:59:09.611Z,24.12
2023-07-16T06:01:38.757Z,24.19
2023-07-16T06:04:08.358Z,24.16
2023-07-16T06:06:37.718Z,24.14
2023-07-16T06:09:06.731Z,24.16
2023-07-16T06:11:36.687Z,24.17
2023-07-16T06:14:06.002Z,24.42
2023-07-16T06:16:35.255Z,24.72
2023-07-16T06:19:04.188Z,25.07
2023-07-16T06:21:33.948Z,25.41
2023-07-16T06:24:02.984Z,25.79
2023-07-16T06:26:32.002Z,26.26
2023-07-16T06:29:00.874Z,26.68
2023-07-16T06:31:30.129Z,27.02
2023-07-16T06:33:59.377Z,27.42
2023-07-16T06:36:29.288Z,27.86
2023-07-16T06:38:58.426Z,28.35
2023-07-16T06:41:28.001Z,28.81
2023-07-16T06:43:56.801Z,29.01
2023-07-16T06:46:26.864Z,28.99
2023-07-16T06:48:55.907Z,29.01
2023-07-16T06:51:25.199Z,29.18
2023-07-16T06:53:54.928Z,29.06
2023-07-16T06:56:23.593Z,29.31
2023-07-16T06:58:53.099Z,29.30
2023-07-16T07:01:22.574Z,29.44
2023-07-16T07:03:51.519Z,29.61
2023-07-16T07:06:21.413Z,29.43
2023-07-16T07:08:51.651Z,29.70
2023-07-16T07:11:20.952Z,29.82
2023-07-16T07:13:51.873Z,30.01
2023-07-16T07:16:21.314Z,30.37
2023-07-16T07:18:50.684Z,30.47
2023-07-16T07:21:19.882Z,30.78
2023-07-16T07:23:48.873Z,31.07
2023-07-16T07:26:17.992Z,31.37
2023-07-16T07:28:47.063Z,31.26
2023-07-16T07:31:16.390Z,31.07
2023-07-16T07:33:45.462Z,31.29
2023-07-16T07:36:14.399Z,31.69
2023-07-16T07:38:43.849Z,31.64
2023-07-16T07:41:13.045Z,31.57
2023-07-16T07:43:41.831Z,31.02
2023-07-16T07:46:11.661Z,30.67
2023-07-16T07:48:41.153Z,30.86
2023-07-16T07:51:10.352Z,31.17
2023-07-16T07:53:40.669Z,31.20
2023-07-16T07:56:09.461Z,31.69
2023-07-16T07:58:39.055Z,31.97
2023-07-16T08:01:09.385Z,32.22
2023-07-16T08:03:38.844Z,32.42
2023-07-16T08:06:08.383Z,31.75
2023-07-16T08:08:37.499Z,32.10
2023-07-16T08:11:06.503Z,32.63
2023-07-16T08:13:35.888Z,32.34
2023-07-16T08:16:05.405Z,32.67
2023-07-16T08:18:34.243Z,32.83
2023-07-16T08:21:03.185Z,32.52
2023-07-16T08:23:32.071Z,32.62
2023-07-16T08:26:00.972Z,32.76
2023-07-16T08:28:30.166Z,33.13
2023-07-16T08:30:59.394Z,33.27
2023-07-16T08:33:28.370Z,33.56
2023-07-16T08:36:00.216Z,33.44
2023-07-16T08:38:29.209Z,33.59
2023-07-16T08:40:58.074Z,33.80
2023-07-16T08:43:27.386Z,33.70
2023-07-16T08:45:57.104Z,34.01
2023-07-16T08:48:26.681Z,34.11
2023-07-16T08:50:59.475Z,33.81
2023-07-16T08:53:28.167Z,33.95
2023-07-16T08:55:58.944Z,33.96
2023-07-16T08:58:28.811Z,33.44
2023-07-16T09:00:58.189Z,33.87
2023-07-16T09:03:27.221Z,34.24
2023-07-16T09:05:56.504Z,34.54
2023-07-16T09:08:30.128Z,34.76
2023-07-16T09:11:00.381Z,34.87
2023-07-16T09:13:30.965Z,35.09
2023-07-16T09:16:00.130Z,35.15
2023-07-16T09:18:29.906Z,35.25
2023-07-16T09:21:01.488Z,35.33
2023-07-16T09:23:32.411Z,35.50
2023-07-16T09:26:01.670Z,35.77
2023-07-16T09:28:33.281Z,35.55
2023-07-16T09:31:07.768Z,35.74
2023-07-16T09:33:36.836Z,36.18
2023-07-16T09:36:06.723Z,36.40
2023-07-16T09:38:36.769Z,36.56
2023-07-16T09:41:07.974Z,36.67
2023-07-16T09:43:37.419Z,36.26
2023-07-16T09:46:06.555Z,36.37
2023-07-16T09:48:35.610Z,36.02
2023-07-16T09:51:05.546Z,36.47
2023-07-16T09:53:36.653Z,36.50
2023-07-16T09:56:07.124Z,36.28
2023-07-16T09:58:36.193Z,36.25
2023-07-16T10:01:06.450Z,36.67
2023-07-16T10:03:35.626Z,36.43
2023-07-16T10:06:10.088Z,36.85
2023-07-16T10:08:38.913Z,36.56
2023-07-16T10:11:18.716Z,36.86
2023-07-16T10:13:52.164Z,36.70
2023-07-16T10:16:25.686Z,36.57
2023-07-16T10:18:55.057Z,35.78
2023-07-16T10:21:26.075Z,35.31
2023-07-16T10:24:01.029Z,34.64
2023-07-16T10:26:31.052Z,34.23
2023-07-16T10:29:00.151Z,34.44
2023-07-16T10:31:29.520Z,34.11
2023-07-16T10:34:09.619Z,33.88
2023-07-16T10:36:41.889Z,34.27
2023-07-16T10:39:10.975Z,34.54
2023-07-16T10:41:39.667Z,34.57
2023-07-16T10:44:15.359Z,34.89
2023-07-16T10:46:44.436Z,35.37
2023-07-16T10:49:13.390Z,35.58
2023-07-16T10:51:42.481Z,35.48
2023-07-16T10:54:11.477Z,34.85
2023-07-16T10:56:40.484Z,34.21
2023-07-16T10:59:12.634Z,34.27
2023-07-16T11:01:41.776Z,34.59
2023-07-16T11:04:11.335Z,35.02
2023-07-16T11:06:40.445Z,35.19
2023-07-16T11:09:13.321Z,35.41
2023-07-16T11:11:42.109Z,35.23
2023-07-16T11:14:11.508Z,35.02
2023-07-16T11:16:40.549Z,35.22
2023-07-16T11:19:09.390Z,35.30
2023-07-16T11:21:38.807Z,35.31
2023-07-16T11:24:12.355Z,34.87
2023-07-16T11:26:41.715Z,34.85
2023-07-16T11:29:17.766Z,34.69
2023-07-16T11:31:51.192Z,34.53
2023-07-16T11:34:23.747Z,34.49
2023-07-16T11:36:52.731Z,34.40
2023-07-16T11:39:21.832Z,34.25
2023-07-16T11:42:00.182Z,34.55
2023-07-16T11:44:33.003Z,35.07
2023-07-16T11:47:02.609Z,35.11
2023-07-16T11:49:32.009Z,35.17
2023-07-16T11:52:01.418Z,35.07
2023-07-16T11:54:30.214Z,35.15
2023-07-16T11:56:59.000Z,35.24
2023-07-16T11:59:27.994Z,35.21
2023-07-16T12:01:57.145Z,35.20
2023-07-16T12:04:25.972Z,34.92
2023-07-16T12:06:55.283Z,34.41
2023-07-16T12:09:24.272Z,34.79
2023-07-16T12:11:53.488Z,34.72
2023-07-16T12:14:22.559Z,34.95
2023-07-16T12:16:51.696Z,35.29
2023-07-16T12:19:20.440Z,35.46
2023-07-16T12:21:50.208Z,35.75
2023-07-16T12:24:19.734Z,35.86
2023-07-16T12:26:48.438Z,35.91
2023-07-16T12:29:17.256Z,35.88
2023-07-16T12:31:46.228Z,35.60
2023-07-16T12:34:15.426Z,35.16
2023-07-16T12:36:44.416Z,35.12
2023-07-16T12:39:13.417Z,34.86
2023-07-16T12:41:44.648Z,34.65
2023-07-16T12:44:13.864Z,34.71
2023-07-16T12:46:42.899Z,34.95
2023-07-16T12:49:12.251Z,35.03
2023-07-16T12:51:41.031Z,35.11
2023-07-16T12:54:10.037Z,34.86
2023-07-16T12:56:40.975Z,34.24
2023-07-16T12:59:09.854Z,34.40
2023-07-16T13:01:39.157Z,34.54
2023-07-16T13:04:08.950Z,34.46
2023-07-16T13:06:37.966Z,34.59
2023-07-16T13:09:06.855Z,34.77
2023-07-16T13:11:35.842Z,34.73
2023-07-16T13:14:05.071Z,34.64
2023-07-16T13:16:33.993Z,34.51
2023-07-16T13:19:03.539Z,34.47
2023-07-16T13:21:33.088Z,34.60
2023-07-16T13:24:01.841Z,34.85
2023-07-16T13:26:30.714Z,34.98
2023-07-16T13:28:59.710Z,35.01
2023-07-16T13:31:28.566Z,35.09
2023-07-16T13:33:57.498Z,35.18
2023-07-16T13:36:26.283Z,35.23
2023-07-16T13:38:55.606Z,35.26
2023-07-16T13:41:25.256Z,35.18
2023-07-16T13:43:54.485Z,35.17
2023-07-16T13:46:23.312Z,35.35
2023-07-16T13:48:58.468Z,35.16
2023-07-16T13:51:28.354Z,34.63
2023-07-16T13:53:57.234Z,34.14
2023-07-16T13:56:26.238Z,34.12
2023-07-16T13:58:55.523Z,34.14
2023-07-16T14:01:24.947Z,33.78
2023-07-16T14:03:54.341Z,33.71
2023-07-16T14:06:23.429Z,33.69
2023-07-16T14:08:52.201Z,33.70
2023-07-16T14:11:22.422Z,33.75
2023-07-16T14:13:52.829Z,33.78
2023-07-16T14:16:22.371Z,33.92
2023-07-16T14:18:54.423Z,34.05
2023-07-16T14:21:23.213Z,34.10
2023-07-16T14:23:52.609Z,34.09
2023-07-16T14:26:21.504Z,34.10
2023-07-16T14:28:50.488Z,34.06
2023-07-16T14:31:20.519Z,33.95
2023-07-16T14:33:49.407Z,34.03
2023-07-16T14:36:18.415Z,33.98
2023-07-16T14:38:47.388Z,33.96
2023-07-16T14:41:16.704Z,33.87
2023-07-16T14:43:47.726Z,33.94
2023-07-16T14:46:18.780Z,33.91
2023-07-16T14:48:47.887Z,34.04
2023-07-16T14:51:17.132Z,34.16
2023-07-16T14:53:46.073Z,34.15
2023-07-16T14:56:15.358Z,34.12
2023-07-16T14:58:44.658Z,34.02
2023-07-16T15:01:13.592Z,33.86
2023-07-16T15:03:42.345Z,33.69
2023-07-16T15:06:11.832Z,33.65
2023-07-16T15:08:40.830Z,33.58
2023-07-16T15:11:10.032Z,33.66
2023-07-16T15:13:39.131Z,33.77
2023-07-16T15:16:09.066Z,33.88
2023-07-16T15:18:38.347Z,33.91
2023-07-16T15:21:07.437Z,33.98
2023-07-16T15:23:36.323Z,33.92
2023-07-16T15:26:08.716Z,33.80
2023-07-16T15:28:39.741Z,33.69
2023-07-16T15:31:09.649Z,33.57
2023-07-16T15:33:38.676Z,33.54
2023-07-16T15:36:08.042Z,33.47
2023-07-16T15:38:39.331Z,33.46
2023-07-16T15:41:13.554Z,33.46
2023-07-16T15:43:46.184Z,33.48
2023-07-16T15:46:15.931Z,33.42
2023-07-16T15:48:47.034Z,33.20
2023-07-16T15:51:16.238Z,33.17
2023-07-16T15:53:45.029Z,33.16
2023-07-16T15:56:13.986Z,33.16
2023-07-16T15:58:42.908Z,33.16
2023-07-16T16:01:12.882Z,33.11
2023-07-16T16:03:44.269Z,32.99
2023-07-16T16:06:16.438Z,32.91
2023-07-16T16:08:45.373Z,32.81
2023-07-16T16:11:15.620Z,32.74
2023-07-16T16:13:44.954Z,32.70
2023-07-16T16:16:15.832Z,32.54
2023-07-16T16:18:45.416Z,32.46
2023-07-16T16:21:14.822Z,32.36
2023-07-16T16:23:44.111Z,32.22
2023-07-16T16:26:12.684Z,32.14
2023-07-16T16:28:41.675Z,31.95
2023-07-16T16:31:10.333Z,31.83
2023-07-16T16:33:39.367Z,31.71
2023-07-16T16:36:12.436Z,31.60
2023-07-16T16:38:43.591Z,31.41
2023-07-16T16:41:14.358Z,31.31
2023-07-16T16:43:43.117Z,31.18
2023-07-16T16:46:11.997Z,31.09
2023-07-16T16:48:42.933Z,30.95
2023-07-16T16:51:13.582Z,30.84
2023-07-16T16:53:43.076Z,30.71
2023-07-16T16:56:12.347Z,30.55
2023-07-16T16:58:41.155Z,30.44
2023-07-16T17:01:10.204Z,30.33
2023-07-16T17:03:39.862Z,30.22
2023-07-16T17:06:09.060Z,30.10
2023-07-16T17:08:38.615Z,30.03
2023-07-16T17:11:07.863Z,29.91
2023-07-16T17:13:36.856Z,29.83
2023-07-16T17:16:05.767Z,29.70
2023-07-16T17:18:34.736Z,29.50
2023-07-16T17:21:04.491Z,29.41
2023-07-16T17:23:33.150Z,29.25
2023-07-16T17:26:02.131Z,29.10
2023-07-16T17:28:31.120Z,28.95
2023-07-16T17:31:00.977Z,28.81
2023-07-16T17:33:29.928Z,28.67
2023-07-16T17:35:59.334Z,28.52
2023-07-16T17:38:28.321Z,28.36
2023-07-16T17:40:57.332Z,28.23
2023-07-16T17:43:26.518Z,28.10
2023-07-16T17:45:58.390Z,27.96
2023-07-16T17:48:28.238Z,27.80
2023-07-16T17:50:58.403Z,27.62
2023-07-16T17:53:27.359Z,27.41
2023-07-16T17:55:56.565Z,27.27
2023-07-16T17:58:25.285Z,27.12
2023-07-16T18:00:57.715Z,27.00
2023-07-16T18:03:26.920Z,26.89
2023-07-16T18:05:58.932Z,26.78
2023-07-16T18:08:28.833Z,26.68
2023-07-16T18:10:58.763Z,26.57
2023-07-16T18:13:27.940Z,26.49
2023-07-16T18:15:56.631Z,26.40
2023-07-16T18:18:25.923Z,26.33
2023-07-16T18:20:58.001Z,26.25
2023-07-16T18:23:30.358Z,26.12
2023-07-16T18:25:59.256Z,26.06
2023-07-16T18:28:29.174Z,25.95
2023-07-16T18:30:58.601Z,25.82
2023-07-16T18:33:27.464Z,25.70
2023-07-16T18:35:59.428Z,25.61
2023-07-16T18:38:29.139Z,25.53
2023-07-16T18:40:58.018Z,25.44
2023-07-16T18:43:27.012Z,25.35
2023-07-16T18:45:55.978Z,25.26
2023-07-16T18:48:24.897Z,25.18
2023-07-16T18:50:53.688Z,25.10
2023-07-16T18:53:22.579Z,25.01
2023-07-16T18:55:51.170Z,24.92
2023-07-16T18:58:19.947Z,24.79
2023-07-16T19:00:55.095Z,24.69
2023-07-16T19:03:24.081Z,24.60
2023-07-16T19:05:53.305Z,24.50
2023-07-16T19:08:22.066Z,24.43
2023-07-16T19:10:50.746Z,24.34
2023-07-16T19:13:21.071Z,24.24
2023-07-16T19:15:50.099Z,24.14
2023-07-16T19:18:19.504Z,24.04
2023-07-16T19:20:48.356Z,23.96
2023-07-16T19:23:17.563Z,23.88
2023-07-16T19:25:46.342Z,23.79
2023-07-16T19:28:15.850Z,23.73
2023-07-16T19:30:44.537Z,23.59
2023-07-16T19:33:13.388Z,23.48
2023-07-16T19:35:42.388Z,23.43
2023-07-16T19:38:11.309Z,23.33
2023-07-16T19:40:43.269Z,23.27
2023-07-16T19:43:11.995Z,23.22
2023-07-16T19:45:41.054Z,23.17
2023-07-16T19:48:09.769Z,23.09
2023-07-16T19:50:39.170Z,22.99
2023-07-16T19:53:07.828Z,22.89
2023-07-16T19:55:38.265Z,22.78
2023-07-16T19:58:07.350Z,22.69
2023-07-16T20:00:36.550Z,22.63
2023-07-16T20:03:08.358Z,22.54
2023-07-16T20:05:41.519Z,22.48
2023-07-16T20:08:17.045Z,22.44
2023-07-16T20:10:48.060Z,22.37
2023-07-16T20:13:17.583Z,22.28
2023-07-16T20:15:47.500Z,22.17
2023-07-16T20:18:19.206Z,22.08
2023-07-16T20:20:48.148Z,22.04
2023-07-16T20:23:17.217Z,22.00
2023-07-16T20:25:46.339Z,21.91
2023-07-16T20:28:20.662Z,21.80
2023-07-16T20:30:50.201Z,21.72
2023-07-16T20:33:18.749Z,21.67
2023-07-16T20:35:47.442Z,21.61
2023-07-16T20:38:16.331Z,21.56
2023-07-16T20:40:45.107Z,21.49
2023-07-16T20:43:13.793Z,21.41
2023-07-16T20:45:46.575Z,21.32
2023-07-16T20:48:17.418Z,21.27
2023-07-16T20:50:46.427Z,21.22
2023-07-16T20:53:15.095Z,21.19
2023-07-16T20:55:44.104Z,21.17
2023-07-16T20:58:13.402Z,21.15
2023-07-16T21:00:43.104Z,21.15
2023-07-16T21:03:12.176Z,21.15
2023-07-16T21:05:40.979Z,21.13
2023-07-16T21:08:09.868Z,21.08
2023-07-16T21:10:38.559Z,20.99
2023-07-16T21:13:08.061Z,20.87
2023-07-16T21:15:37.054Z,20.79
2023-07-16T21:18:06.346Z,20.76
2023-07-16T21:20:39.773Z,20.76
2023-07-16T21:23:09.517Z,20.77
2023-07-16T21:25:39.309Z,20.80
2023-07-16T21:28:11.643Z,20.80
2023-07-16T21:30:42.748Z,20.81
2023-07-16T21:33:12.669Z,20.80
2023-07-16T21:35:42.215Z,20.76
2023-07-16T21:38:11.638Z,20.69
2023-07-16T21:40:41.442Z,20.62
2023-07-16T21:43:12.183Z,20.51
2023-07-16T21:45:42.280Z,20.43
2023-07-16T21:48:11.230Z,20.36
2023-07-16T21:50:40.160Z,20.31
2023-07-16T21:53:16.438Z,20.27
2023-07-16T21:55:46.236Z,20.22
2023-07-16T21:58:15.934Z,20.20
2023-07-16T22:00:45.883Z,20.16
2023-07-16T22:03:16.437Z,20.14
2023-07-16T22:05:46.233Z,20.12
2023-07-16T22:08:17.704Z,20.09
2023-07-16T22:10:47.646Z,20.07
2023-07-16T22:13:16.954Z,20.05
2023-07-16T22:15:46.462Z,20.02
2023-07-16T22:18:16.216Z,20.01
2023-07-16T22:20:46.106Z,19.99
2023-07-16T22:23:15.919Z,19.89
2023-07-16T22:25:45.421Z,19.68
2023-07-16T22:28:15.556Z,19.42
2023-07-16T22:30:45.609Z,19.27
2023-07-16T22:33:14.739Z,19.19
2023-07-16T22:35:44.170Z,19.19
2023-07-16T22:38:13.352Z,19.20
2023-07-16T22:40:43.488Z,19.21
2023-07-16T22:43:13.401Z,19.21
2023-07-16T22:45:46.386Z,19.21
2023-07-16T22:48:18.894Z,19.22
2023-07-16T22:50:48.605Z,19.26
2023-07-16T22:53:19.356Z,19.30
2023-07-16T22:55:49.943Z,19.32
2023-07-16T22:58:19.022Z,19.35
2023-07-16T23:00:48.426Z,19.39
2023-07-16T23:03:19.424Z,19.41
2023-07-16T23:05:48.999Z,19.43
2023-07-16T23:08:18.601Z,19.42
2023-07-16T23:10:47.991Z,19.42
2023-07-16T23:13:19.076Z,19.42
2023-07-16T23:15:50.645Z,19.40
2023-07-16T23:18:21.472Z,19.37
2023-07-16T23:20:51.839Z,19.31
2023-07-16T23:23:22.084Z,19.25
2023-07-16T23:25:52.574Z,19.19
2023-07-16T23:28:23.011Z,19.16
2023-07-16T23:30:53.039Z,19.14
2023-07-16T23:33:23.479Z,19.13
2023-07-16T23:35:54.064Z,19.12
2023-07-16T23:38:23.924Z,19.13
2023-07-16T23:40:54.019Z,19.14
2023-07-16T23:43:24.897Z,19.15
2023-07-16T23:45:54.590Z,19.15
2023-07-16T23:48:24.187Z,19.15
2023-07-16T23:50:54.313Z,19.13
2023-07-16T23:53:25.501Z,19.09
2023-07-16T23:55:59.772Z,19.04
2023-07-16T23:58:30.983Z,18.96
